x

Ilm2 - 5 Miles Se Of Wrightsville Beach, Nc (41038) Weather Station

3:08 - Sat 1st Oct 2016 All times are EDT. -4 hours from GMT.

  • Wind
    4mph, 9mph gusts
  • Sea Temp 80°f
  • Luft Temp 80°f
  • Sea Pressure 1017.5mb
  • Ilm2 - 5 Miles Se Of Wrightsville Beach, Nc
  • Ilm2 - 5 Miles Se Of Wrightsville Beach, Nc

More Historic Weather Station data

Upgrade to MSW Pro to gain access to the past 30 days of data for over 8000 Wavebouys and Weather Stations around the globe.

Join Pro

Comparision Forecast

View Surf forecast
   
Sa 10/01 3:08 4 9 mph 1017.5mb 80f 80f
2:08 4 9 mph 1017.4mb 80f 78f
1:08 9 13 mph 1017.8mb 80f 80f
12:08 11 16 mph 1018mb 81f 80f
Fr 09/30 11:08 11 16 mph 1017.7mb 80f 81f
10:08 11 16 mph 1017.6mb 81f 81f
9:08 11 16 mph 1017.3mb 80f 81f
8:08 9 13 mph 1016.5mb 80f 81f
7:08 9 13 mph 1016.5mb 80f 81f
6:08 9 11 mph 1016.4mb 80f 81f
5:08 11 16 mph 1016.2mb 80f 79f
4:08 13 18 mph 1016.4mb 80f 77f
3:08 9 13 mph 1016.8mb 80f 78f
2:08 9 11 mph 1017.4mb 80f 76f
1:08 9 16 mph 1017mb 80f 74f
12:08 9 11 mph 1018.7mb 80f 75f
11:08 11 18 mph 1018mb 80f 74f
10:08 13 22 mph 1018.3mb 80f 76f
9:08 18 25 mph 1017.7mb 80f 79f
8:08 11 18 mph 1016.7mb 80f 81f
7:08 13 20 mph 1016.2mb 80f 80f
6:08 9 13 mph 1016.4mb 80f 81f
5:08 9 13 mph 1015.7mb 80f 81f
3:08 13 18 mph 1016.1mb 80f 80f
2:08 11 16 mph 1016.5mb 80f 80f
1:08 11 16 mph 1016.7mb 80f 80f
12:08 13 18 mph 1017.2mb 81f 80f
Do 09/29 11:08 13 18 mph 1017.8mb 81f 80f
10:08 13 18 mph 1017.5mb 81f 80f
9:08 13 20 mph 1017.1mb 81f 80f
8:08 13 18 mph 1016.6mb 81f 80f
7:08 11 16 mph 1016.5mb 81f 80f
6:08 7 11 mph 1017mb 81f 80f
5:08 4 9 mph 1017mb 81f 81f
4:08 7 11 mph 1016.8mb 81f 80f
3:08 9 13 mph 1016.3mb 81f 79f
2:08 11 16 mph 1017.2mb 81f 78f
1:08 13 20 mph 1017.9mb 81f 77f
12:08 11 18 mph 1018mb 81f 81f
11:08 11 16 mph 1017.7mb 80f 81f
10:08 13 20 mph 1016.7mb 80f 81f
9:08 13 18 mph 1016.5mb 80f 80f
7:08 11 16 mph 1015.4mb 81f 81f
6:08 11 16 mph 1015.5mb 81f 81f
5:08 11 16 mph 1015.4mb 81f 81f
4:08 9 13 mph 1015.3mb 81f 81f
3:08 13 18 mph 1015.5mb 81f 81f
2:08 13 20 mph 1015.9mb 81f 81f
1:08 13 20 mph 1016.2mb 81f 81f
12:08 13 20 mph 1016.4mb 81f 81f
Mi 09/28 11:08 13 20 mph 1016.5mb 81f 81f
10:08 13 20 mph 1016.7mb 81f 80f
9:08 13 18 mph 1016.3mb 81f 81f
8:08 11 16 mph 1016.2mb 81f 80f
7:08 11 18 mph 1015.7mb 81f 81f
6:08 11 18 mph 1015.3mb 81f 81f
5:08 13 18 mph 1015mb 81f 81f
4:08 11 16 mph 1015.2mb 82f 81f
3:08 9 13 mph 1015.9mb 81f 81f
2:08 9 13 mph 1016.2mb 81f 81f
1:08 9 11 mph 1016.4mb 81f 80f
12:08 7 9 mph 1016.5mb 81f 80f
11:08 4 7 mph 1016.7mb 81f 80f
10:08  -  2 mph 1016.5mb 81f 81f
9:08 4 7 mph 1016mb 80f 80f
8:08 2 4 mph 1015.3mb 80f 80f
7:08 2 7 mph 1014.9mb 80f 79f
6:08 4 7 mph 1014.5mb 80f 78f
5:08 4 7 mph 1014.1mb 80f 78f
4:08 4 9 mph 1014.1mb 80f 78f
3:08 7 9 mph 1014.1mb 80f 79f
2:08 4 7 mph 1014.3mb 80f 79f
1:08 2 4 mph 1014.1mb 80f 79f
12:08 2 7 mph 1014mb 80f 79f
Di 09/27 11:08 7 9 mph 1014mb 81f 79f
10:08 4 9 mph 1013.7mb 81f 79f
9:08 7 9 mph 1013.5mb 81f 79f
8:08 7 11 mph 1013.7mb 81f 79f
7:08 4 7 mph 1013.4mb 81f 79f
6:08 7 11 mph 1012.5mb 81f 80f
5:08 9 13 mph 1012.8mb 81f 81f
4:08 7 11 mph 1013mb 81f 79f
3:08 7 11 mph 1013.3mb 81f 80f
2:08 4 7 mph 1013.7mb 81f 80f
1:08 4 7 mph 1014.4mb 81f 80f
12:08 4 7 mph 1015mb 81f 80f
11:08 4 9 mph 1015.9mb 80f 80f
10:08 2 7 mph 1015.7mb 80f 80f
9:08 7 9 mph 1015mb 80f 80f